MMLT 090140Z 00000KT 10SM SCT120 22/16 A2993 RMK 8/030= 090140

MMLT 090040Z 00000KT 10SM BKN240 22/16 A2993 RMK 8/030= 090105

MMLT 082340Z 00000KT 10SM BKN100 23/16 A2993 RMK SLP135 8/030= 090104

MMLT 082240Z 00000KT 10SM BKN100 24/15 A2991 RMK 8/030= 082247

MMLT 082140Z 00000KT 10SM BKN100 24/13 A2991 RMK 8/030= 082140

MMLT 082040Z 00000KT 10SM OVC100 24/12 A2992 RMK SLP132 8/02/ BINOVC= 082042

MMLT 081940Z 00000KT 10SM OVC100 24/11 A2996 RMK 8/02/ BINOVC= 081945

MMLT 081852Z 00000KT 10SM OVC100 24/08 A2998 RMK 8/02/ BINOVC= 081853

MMLT 081744Z 00000KT 10SM OVC100 23/04 A2999 RMK SLP156 8/02/ BINOVC= 081745

MMLT 081646Z 00000KT 10SM OVC100 22/04 A2999 RMK 8/02/ BINOVC= 081648

MMLT 081548Z 00000KT 10SM OVC100 21/02 A2997 RMK 8/02/ BINOVC= 081549

MMLT 081502Z RTD 30007KT 10SM OVC100 21/01 A2996 RMK SLP146 8/02/ BINOVC= 081505

MMLT 081402Z RTD 30007KT 10SM OVC100 21/01 A2993 RMK 8/02/ BINOVC RTS= 081414

MMLT 080140Z 18006KT 10SM SCT240 24/17 A2991 RMK 8/006= 080144

MMLT 080040Z 16010KT 10SM BKN240 24/17 A2990 RMK 8/006= 080049

MMLT 072340Z 14016KT 10SM BKN240 24/17 A2989 RMK SLP122 8/006= 072344

MMLT 072240Z 16014KT 10SM BKN240 25/17 A2989 RMK 8/006= 072247

MMLT 072140Z 16010KT 10SM BKN240 26/17 A2990 RMK 8/006= 072247

MMLT 072040Z 16010KT 10SM BKN240 27/11 A2990 RMK SLP125 8/006= 072041

MMLT 071940Z 12008KT 10SM BKN240 27/10 A2992 RMK 8/006= 071941

MMLT 071850Z 15010KT 10SM BKN240 25/16 A2995 RMK 8/001= 071851

MMLT 071748Z 00000KT 10SM BKN240 25/16 A2997 RMK SLP149 8/001= 071748

MMLT 071648Z 00000KT 10SM SCT240 24/13 A2998 RMK 8/001= 071648

MMLT 071550Z 00000KT 10SM SCT240 20/10 A2997 RMK 8/001= 071553

MMLT 071445Z 30010KT 10SM SCT240 18/11 A2996 RMK SLP146 8/001= 071445

MMLT 071400Z RTD 31010KT 10SM SCT240 17/12 A2995 RMK 8/001 RTS= 071405

MMLT 070140Z 00000KT 10SM SKC 22/17 A2998= 070140

MMLT 070040Z 04006KT 10SM SKC 22/17 A2997= 070040

MMLT 062340Z 04010KT 10SM SKC 24/16 A2997 RMK SLP149= 062346

MMLT 062240Z 03010KT 10SM SKC 24/16 A2996= 062327

MMLT 062140Z 05012KT 10SM SKC 25/14 A2996= 062144

MMLT 062040Z 07012KT 10SM SKC 25/12 A2996 RMK SLP146= 062040

MMLT 061940Z 07010KT 10SM SKC 26/13 A2998= 061940

MMLT 061852Z 07010KT 10SM SKC 26/12 A3001= 061852

MMLT 061756Z 00000KT 10SM SKC 26/12 A3003 RMK SLP169 HZY= 061756

MMLT 061641Z 00000KT 10SM SKC 25/10 A3004 RMK HZY= 061641

MMLT 061540Z 00000KT 10SM SKC 22/10 A3003 RMK HZY= 061540

MMLT 061445Z 29010KT 10SM SKC 20/10 A3000 RMK SLP159 HZY= 061446

MMLT 061352Z 00000KT 10SM SKC 21/08 A2999 RMK HZY RTS= 061353